Drakesboro, Kentucky
Current Conditions -  °F | °C
As of 11:15 AM on Friday 19 Dec 2014 (Local Time) from K2I0 Reporting Station
Scattered Clouds Scattered Clouds  
Wind Chill: 33°   Ceiling: Unl
Heat Index: 37°   Visibility: 10mi
Dew Point: 28°   Wind: 5mph
Humidity: 71%   Direction: 60°ENE
Pressure: 30.3"   Gusts: NA
Location:  37.22°N, 87.05°W
Report Text: K2I0 191715Z AUTO 06004KT 10SM SCT044 03/M02 A3030 RMK AO2 T00261021
Loading
Personal Weather Stations






























Interactive Weather Map New forecast layout! Learn more

10-Day Weather Forecast

Advertisements
Track Severe Weather on mobile